sensor_id;sensor_type;location;lat;lon;timestamp;pressure;altitude;pressure_sealevel;temperature;humidity
43804;BME280;29430;52.924;-2.388;2023-03-26T00:00:11;97862.53;;;7.28;85.01
43804;BME280;29430;52.924;-2.388;2023-03-26T00:05:07;97849.78;;;7.23;85.32
43804;BME280;29430;52.924;-2.388;2023-03-26T00:09:59;97847.22;;;7.16;85.73
43804;BME280;29430;52.924;-2.388;2023-03-26T00:14:51;97834.47;;;7.12;86.12
43804;BME280;29430;52.924;-2.388;2023-03-26T00:19:43;97840.34;;;7.09;86.47
43804;BME280;29430;52.924;-2.388;2023-03-26T00:24:35;97843.88;;;7.09;86.87
43804;BME280;29430;52.924;-2.388;2023-03-26T00:29:27;97836.03;;;7.08;87.51
43804;BME280;29430;52.924;-2.388;2023-03-26T00:34:19;97838.13;;;7.06;87.65
43804;BME280;29430;52.924;-2.388;2023-03-26T00:39:11;97829.25;;;7.05;88.25
43804;BME280;29430;52.924;-2.388;2023-03-26T00:44:04;97824.66;;;7.06;89.21
43804;BME280;29430;52.924;-2.388;2023-03-26T00:48:56;97827.34;;;7.06;89.91
43804;BME280;29430;52.924;-2.388;2023-03-26T00:53:49;97820.59;;;7.03;90.59
43804;BME280;29430;52.924;-2.388;2023-03-26T00:58:41;97830.78;;;7.01;91.69
43804;BME280;29430;52.924;-2.388;2023-03-26T01:03:34;97834.38;;;7.07;92.09
43804;BME280;29430;52.924;-2.388;2023-03-26T01:08:31;97844.84;;;7.03;92.71
43804;BME280;29430;52.924;-2.388;2023-03-26T01:13:24;97825.38;;;7.01;93.04
43804;BME280;29430;52.924;-2.388;2023-03-26T01:18:17;97826.69;;;6.98;93.39
43804;BME280;29430;52.924;-2.388;2023-03-26T01:23:16;97807.16;;;6.91;94.17
43804;BME280;29430;52.924;-2.388;2023-03-26T01:28:10;97817.13;;;6.91;94.13
43804;BME280;29430;52.924;-2.388;2023-03-26T01:38:29;97811.72;;;6.91;95.56
43804;BME280;29430;52.924;-2.388;2023-03-26T01:48:40;97795.94;;;6.82;96.56
43804;BME280;29430;52.924;-2.388;2023-03-26T01:53:34;97789.25;;;6.85;96.28
43804;BME280;29430;52.924;-2.388;2023-03-26T02:03:42;97784.03;;;6.78;98.28
43804;BME280;29430;52.924;-2.388;2023-03-26T02:08:57;97774.78;;;6.74;98.69
43804;BME280;29430;52.924;-2.388;2023-03-26T02:13:51;97767.66;;;6.68;99.12
43804;BME280;29430;52.924;-2.388;2023-03-26T02:18:45;97766.97;;;6.61;100.00
43804;BME280;29430;52.924;-2.388;2023-03-26T02:23:42;97761.09;;;6.64;100.00
43804;BME280;29430;52.924;-2.388;2023-03-26T02:28:37;97774.47;;;6.59;100.00
43804;BME280;29430;52.924;-2.388;2023-03-26T02:33:30;97757.75;;;6.57;100.00
43804;BME280;29430;52.924;-2.388;2023-03-26T02:38:22;97758.22;;;6.54;100.00
43804;BME280;29430;52.924;-2.388;2023-03-26T02:43:15;97749.00;;;6.50;100.00
43804;BME280;29430;52.924;-2.388;2023-03-26T02:48:07;97758.13;;;6.49;100.00
43804;BME280;29430;52.924;-2.388;2023-03-26T02:52:59;97757.47;;;6.41;100.00
43804;BME280;29430;52.924;-2.388;2023-03-26T02:57:51;97756.38;;;6.42;100.00
43804;BME280;29430;52.924;-2.388;2023-03-26T03:02:42;97746.31;;;6.38;100.00
43804;BME280;29430;52.924;-2.388;2023-03-26T03:07:38;97744.59;;;6.32;100.00
43804;BME280;29430;52.924;-2.388;2023-03-26T03:12:30;97759.13;;;6.31;100.00
43804;BME280;29430;52.924;-2.388;2023-03-26T03:17:22;97746.16;;;6.27;100.00
43804;BME280;29430;52.924;-2.388;2023-03-26T03:22:14;97761.94;;;6.24;100.00
43804;BME280;29430;52.924;-2.388;2023-03-26T03:27:05;97759.25;;;6.24;100.00
43804;BME280;29430;52.924;-2.388;2023-03-26T03:31:57;97755.19;;;6.21;100.00
43804;BME280;29430;52.924;-2.388;2023-03-26T03:36:50;97746.16;;;6.16;100.00
43804;BME280;29430;52.924;-2.388;2023-03-26T03:41:42;97767.13;;;6.14;100.00
43804;BME280;29430;52.924;-2.388;2023-03-26T03:46:34;97753.06;;;6.12;100.00
43804;BME280;29430;52.924;-2.388;2023-03-26T03:51:26;97757.88;;;6.09;100.00
43804;BME280;29430;52.924;-2.388;2023-03-26T03:56:18;97757.88;;;6.09;100.00
43804;BME280;29430;52.924;-2.388;2023-03-26T04:01:15;97760.25;;;6.06;100.00
43804;BME280;29430;52.924;-2.388;2023-03-26T04:06:14;97755.91;;;6.05;100.00
43804;BME280;29430;52.924;-2.388;2023-03-26T04:11:09;97747.81;;;6.05;100.00
43804;BME280;29430;52.924;-2.388;2023-03-26T04:16:01;97763.63;;;6.01;100.00
43804;BME280;29430;52.924;-2.388;2023-03-26T04:20:53;97754.50;;;6.02;100.00
43804;BME280;29430;52.924;-2.388;2023-03-26T04:25:51;97769.13;;;6.06;100.00
43804;BME280;29430;52.924;-2.388;2023-03-26T04:30:44;97776.63;;;6.04;100.00
43804;BME280;29430;52.924;-2.388;2023-03-26T04:35:36;97784.09;;;6.02;100.00
43804;BME280;29430;52.924;-2.388;2023-03-26T04:40:28;97778.00;;;6.07;100.00
43804;BME280;29430;52.924;-2.388;2023-03-26T04:45:21;97765.63;;;6.06;100.00
43804;BME280;29430;52.924;-2.388;2023-03-26T04:50:13;97768.31;;;6.06;100.00
43804;BME280;29430;52.924;-2.388;2023-03-26T04:55:25;97775.22;;;6.02;100.00
43804;BME280;29430;52.924;-2.388;2023-03-26T05:00:18;97790.66;;;6.06;100.00
43804;BME280;29430;52.924;-2.388;2023-03-26T05:05:10;97785.97;;;6.02;100.00
43804;BME280;29430;52.924;-2.388;2023-03-26T05:10:03;97784.00;;;5.97;100.00
43804;BME280;29430;52.924;-2.388;2023-03-26T05:14:56;97798.03;;;5.99;100.00
43804;BME280;29430;52.924;-2.388;2023-03-26T05:19:48;97804.06;;;5.95;100.00
43804;BME280;29430;52.924;-2.388;2023-03-26T05:24:39;97807.59;;;5.95;100.00
43804;BME280;29430;52.924;-2.388;2023-03-26T05:29:31;97820.94;;;5.90;100.00
43804;BME280;29430;52.924;-2.388;2023-03-26T05:34:23;97819.88;;;5.91;100.00
43804;BME280;29430;52.924;-2.388;2023-03-26T05:39:16;97825.50;;;5.89;100.00
43804;BME280;29430;52.924;-2.388;2023-03-26T05:44:08;97840.00;;;5.88;100.00
43804;BME280;29430;52.924;-2.388;2023-03-26T05:49:02;97836.97;;;5.85;100.00
43804;BME280;29430;52.924;-2.388;2023-03-26T05:53:54;97842.56;;;5.83;100.00
43804;BME280;29430;52.924;-2.388;2023-03-26T05:58:46;97847.84;;;5.78;100.00
43804;BME280;29430;52.924;-2.388;2023-03-26T06:03:38;97870.19;;;5.79;100.00
43804;BME280;29430;52.924;-2.388;2023-03-26T06:08:30;97866.53;;;5.73;100.00
43804;BME280;29430;52.924;-2.388;2023-03-26T06:13:22;97885.59;;;5.71;100.00
43804;BME280;29430;52.924;-2.388;2023-03-26T06:18:14;97883.59;;;5.67;100.00
43804;BME280;29430;52.924;-2.388;2023-03-26T06:23:05;97881.59;;;5.62;100.00
43804;BME280;29430;52.924;-2.388;2023-03-26T06:27:57;97913.41;;;5.65;100.00
43804;BME280;29430;52.924;-2.388;2023-03-26T06:32:49;97932.47;;;5.64;100.00
43804;BME280;29430;52.924;-2.388;2023-03-26T06:37:41;97942.06;;;5.60;100.00
43804;BME280;29430;52.924;-2.388;2023-03-26T06:42:33;97931.53;;;5.58;100.00
43804;BME280;29430;52.924;-2.388;2023-03-26T06:47:45;97937.38;;;5.55;100.00
43804;BME280;29430;52.924;-2.388;2023-03-26T06:52:37;97945.44;;;5.55;100.00
43804;BME280;29430;52.924;-2.388;2023-03-26T06:57:28;97958.28;;;5.53;100.00
43804;BME280;29430;52.924;-2.388;2023-03-26T07:02:20;97976.28;;;5.52;100.00
43804;BME280;29430;52.924;-2.388;2023-03-26T07:07:12;97988.53;;;5.48;99.52
43804;BME280;29430;52.924;-2.388;2023-03-26T07:12:04;98006.78;;;5.46;98.85
43804;BME280;29430;52.924;-2.388;2023-03-26T07:16:59;98006.88;;;5.40;96.98
43804;BME280;29430;52.924;-2.388;2023-03-26T07:21:51;98014.09;;;5.39;97.10
43804;BME280;29430;52.924;-2.388;2023-03-26T07:26:51;98028.22;;;5.34;95.89
43804;BME280;29430;52.924;-2.388;2023-03-26T07:31:57;98038.16;;;5.34;95.33
43804;BME280;29430;52.924;-2.388;2023-03-26T07:37:07;98052.88;;;5.31;95.71
43804;BME280;29430;52.924;-2.388;2023-03-26T07:46:59;98072.97;;;5.29;94.73
43804;BME280;29430;52.924;-2.388;2023-03-26T07:51:52;98087.00;;;5.31;94.70
43804;BME280;29430;52.924;-2.388;2023-03-26T07:56:58;98101.88;;;5.33;94.64
43804;BME280;29430;52.924;-2.388;2023-03-26T08:12:28;98109.28;;;5.38;94.50
43804;BME280;29430;52.924;-2.388;2023-03-26T08:17:35;98128.22;;;5.43;93.79
43804;BME280;29430;52.924;-2.388;2023-03-26T08:22:34;98135.25;;;5.44;93.57
43804;BME280;29430;52.924;-2.388;2023-03-26T08:27:40;98151.00;;;5.41;91.50
43804;BME280;29430;52.924;-2.388;2023-03-26T08:32:33;98160.72;;;5.42;90.78
43804;BME280;29430;52.924;-2.388;2023-03-26T08:37:25;98172.28;;;5.42;90.11
43804;BME280;29430;52.924;-2.388;2023-03-26T08:53:05;98207.56;;;5.52;90.10
43804;BME280;29430;52.924;-2.388;2023-03-26T09:55:03;98349.94;;;6.72;85.78
43804;BME280;29430;52.924;-2.388;2023-03-26T10:00:24;98368.06;;;6.83;83.24
43804;BME280;29430;52.924;-2.388;2023-03-26T10:15:37;98404.94;;;6.82;81.09
43804;BME280;29430;52.924;-2.388;2023-03-26T10:30:41;98435.66;;;6.81;80.25
43804;BME280;29430;52.924;-2.388;2023-03-26T10:35:40;98453.91;;;6.98;80.34
43804;BME280;29430;52.924;-2.388;2023-03-26T10:51:37;98475.41;;;7.53;78.33
43804;BME280;29430;52.924;-2.388;2023-03-26T10:56:47;98490.69;;;7.60;76.65
43804;BME280;29430;52.924;-2.388;2023-03-26T11:11:54;98542.09;;;7.65;76.36
43804;BME280;29430;52.924;-2.388;2023-03-26T11:16:55;98551.53;;;7.74;76.07
43804;BME280;29430;52.924;-2.388;2023-03-26T11:22:10;98564.38;;;7.91;75.62
43804;BME280;29430;52.924;-2.388;2023-03-26T11:32:21;98570.41;;;8.04;73.08
43804;BME280;29430;52.924;-2.388;2023-03-26T11:37:22;98574.34;;;8.20;72.93
43804;BME280;29430;52.924;-2.388;2023-03-26T11:42:20;98587.06;;;8.32;70.60
43804;BME280;29430;52.924;-2.388;2023-03-26T11:47:16;98593.91;;;8.34;70.29
43804;BME280;29430;52.924;-2.388;2023-03-26T11:52:10;98609.63;;;8.37;70.24
43804;BME280;29430;52.924;-2.388;2023-03-26T11:57:03;98615.50;;;8.34;70.75
43804;BME280;29430;52.924;-2.388;2023-03-26T12:02:18;98629.94;;;8.40;70.29
43804;BME280;29430;52.924;-2.388;2023-03-26T12:07:19;98642.53;;;8.34;69.32
43804;BME280;29430;52.924;-2.388;2023-03-26T12:12:11;98646.28;;;8.33;69.67
43804;BME280;29430;52.924;-2.388;2023-03-26T12:17:07;98656.84;;;8.35;69.12
43804;BME280;29430;52.924;-2.388;2023-03-26T12:21:59;98661.75;;;8.56;67.75
43804;BME280;29430;52.924;-2.388;2023-03-26T12:26:59;98679.09;;;8.79;67.26
43804;BME280;29430;52.924;-2.388;2023-03-26T12:32:14;98686.63;;;8.89;65.04
43804;BME280;29430;52.924;-2.388;2023-03-26T12:37:36;98690.16;;;8.89;65.85
43804;BME280;29430;52.924;-2.388;2023-03-26T12:42:32;98699.81;;;8.85;65.07
43804;BME280;29430;52.924;-2.388;2023-03-26T12:47:43;98719.19;;;8.82;65.42
43804;BME280;29430;52.924;-2.388;2023-03-26T12:53:01;98737.22;;;8.88;65.87
43804;BME280;29430;52.924;-2.388;2023-03-26T12:58:04;98742.47;;;8.83;65.35
43804;BME280;29430;52.924;-2.388;2023-03-26T13:19:08;98764.34;;;8.51;65.39
43804;BME280;29430;52.924;-2.388;2023-03-26T13:49:40;98814.66;;;8.83;64.34
43804;BME280;29430;52.924;-2.388;2023-03-26T13:54:41;98823.34;;;8.85;63.69
43804;BME280;29430;52.924;-2.388;2023-03-26T13:59:59;98829.97;;;8.89;63.03
43804;BME280;29430;52.924;-2.388;2023-03-26T14:05:47;98827.78;;;8.98;64.40
43804;BME280;29430;52.924;-2.388;2023-03-26T14:10:19;98834.50;;;9.07;62.73
43804;BME280;29430;52.924;-2.388;2023-03-26T14:25:15;98855.38;;;9.18;63.51
43804;BME280;29430;52.924;-2.388;2023-03-26T14:55:38;98905.94;;;9.48;62.94
43804;BME280;29430;52.924;-2.388;2023-03-26T15:06:04;98917.69;;;9.42;60.67
43804;BME280;29430;52.924;-2.388;2023-03-26T15:11:12;98941.63;;;9.26;60.97
43804;BME280;29430;52.924;-2.388;2023-03-26T15:58:41;99021.84;;;8.58;66.92
43804;BME280;29430;52.924;-2.388;2023-03-26T16:09:37;99035.53;;;8.64;67.31
43804;BME280;29430;52.924;-2.388;2023-03-26T16:14:42;99050.09;;;8.63;66.29
43804;BME280;29430;52.924;-2.388;2023-03-26T16:19:47;99063.22;;;8.59;66.28
43804;BME280;29430;52.924;-2.388;2023-03-26T16:24:44;99066.16;;;8.57;66.30
43804;BME280;29430;52.924;-2.388;2023-03-26T16:30:14;99084.50;;;8.49;65.94
43804;BME280;29430;52.924;-2.388;2023-03-26T16:45:20;99099.28;;;8.14;68.45
43804;BME280;29430;52.924;-2.388;2023-03-26T16:50:28;99117.81;;;8.04;68.85
43804;BME280;29430;52.924;-2.388;2023-03-26T16:55:38;99127.00;;;7.96;67.55
43804;BME280;29430;52.924;-2.388;2023-03-26T17:00:46;99141.75;;;7.94;66.92
43804;BME280;29430;52.924;-2.388;2023-03-26T17:16:07;99170.25;;;7.83;67.56
43804;BME280;29430;52.924;-2.388;2023-03-26T17:26:44;99188.81;;;7.59;69.40
43804;BME280;29430;52.924;-2.388;2023-03-26T17:31:44;99207.28;;;7.56;69.60
43804;BME280;29430;52.924;-2.388;2023-03-26T17:36:41;99206.06;;;7.51;69.65
43804;BME280;29430;52.924;-2.388;2023-03-26T17:47:05;99233.03;;;7.38;67.99
43804;BME280;29430;52.924;-2.388;2023-03-26T17:52:15;99239.28;;;7.32;67.51
43804;BME280;29430;52.924;-2.388;2023-03-26T17:57:12;99253.78;;;7.24;67.76
43804;BME280;29430;52.924;-2.388;2023-03-26T18:02:20;99261.47;;;7.21;67.42
43804;BME280;29430;52.924;-2.388;2023-03-26T18:17:48;99280.56;;;6.99;69.90
43804;BME280;29430;52.924;-2.388;2023-03-26T18:22:43;99301.66;;;6.89;70.51
43804;BME280;29430;52.924;-2.388;2023-03-26T18:27:37;99310.16;;;6.79;71.21
43804;BME280;29430;52.924;-2.388;2023-03-26T18:32:31;99317.59;;;6.70;71.08
43804;BME280;29430;52.924;-2.388;2023-03-26T18:37:29;99334.16;;;6.60;72.03
43804;BME280;29430;52.924;-2.388;2023-03-26T18:42:24;99356.94;;;6.58;72.23
43804;BME280;29430;52.924;-2.388;2023-03-26T18:47:18;99361.06;;;6.54;72.25
43804;BME280;29430;52.924;-2.388;2023-03-26T18:52:15;99367.25;;;6.48;72.42
43804;BME280;29430;52.924;-2.388;2023-03-26T18:57:10;99373.91;;;6.52;73.14
43804;BME280;29430;52.924;-2.388;2023-03-26T19:02:12;99387.38;;;6.52;73.10
43804;BME280;29430;52.924;-2.388;2023-03-26T19:07:10;99397.53;;;6.50;72.55
43804;BME280;29430;52.924;-2.388;2023-03-26T19:17:13;99421.47;;;6.38;72.98
43804;BME280;29430;52.924;-2.388;2023-03-26T19:22:05;99422.53;;;6.37;73.80
43804;BME280;29430;52.924;-2.388;2023-03-26T19:26:59;99441.59;;;6.35;73.83
43804;BME280;29430;52.924;-2.388;2023-03-26T19:32:00;99437.22;;;6.34;74.16
43804;BME280;29430;52.924;-2.388;2023-03-26T19:37:01;99457.56;;;6.37;73.83
43804;BME280;29430;52.924;-2.388;2023-03-26T19:41:54;99463.94;;;6.36;73.69
43804;BME280;29430;52.924;-2.388;2023-03-26T19:46:46;99460.44;;;6.35;73.42
43804;BME280;29430;52.924;-2.388;2023-03-26T19:51:49;99470.56;;;6.33;73.40
43804;BME280;29430;52.924;-2.388;2023-03-26T19:56:43;99470.34;;;6.35;73.44
43804;BME280;29430;52.924;-2.388;2023-03-26T20:01:35;99477.22;;;6.37;73.29
43804;BME280;29430;52.924;-2.388;2023-03-26T20:06:27;99483.00;;;6.34;73.55
43804;BME280;29430;52.924;-2.388;2023-03-26T20:11:35;99492.75;;;6.35;74.32
43804;BME280;29430;52.924;-2.388;2023-03-26T20:16:31;99497.28;;;6.35;73.68
43804;BME280;29430;52.924;-2.388;2023-03-26T20:21:24;99507.06;;;6.36;74.01
43804;BME280;29430;52.924;-2.388;2023-03-26T20:26:16;99517.00;;;6.35;73.82
43804;BME280;29430;52.924;-2.388;2023-03-26T20:31:14;99526.72;;;6.36;74.67
43804;BME280;29430;52.924;-2.388;2023-03-26T20:36:11;99533.38;;;6.34;74.06
43804;BME280;29430;52.924;-2.388;2023-03-26T20:41:04;99538.28;;;6.30;74.61
43804;BME280;29430;52.924;-2.388;2023-03-26T20:45:56;99544.97;;;6.34;75.05
43804;BME280;29430;52.924;-2.388;2023-03-26T20:50:48;99563.25;;;6.39;74.70
43804;BME280;29430;52.924;-2.388;2023-03-26T20:55:42;99554.56;;;6.43;75.24
43804;BME280;29430;52.924;-2.388;2023-03-26T21:00:34;99549.19;;;6.43;74.71
43804;BME280;29430;52.924;-2.388;2023-03-26T21:05:27;99556.25;;;6.44;75.26
43804;BME280;29430;52.924;-2.388;2023-03-26T21:10:21;99561.44;;;6.46;75.37
43804;BME280;29430;52.924;-2.388;2023-03-26T21:15:13;99568.88;;;6.44;74.85
43804;BME280;29430;52.924;-2.388;2023-03-26T21:20:14;99572.41;;;6.44;75.73
43804;BME280;29430;52.924;-2.388;2023-03-26T21:30:13;99596.06;;;6.49;74.72
43804;BME280;29430;52.924;-2.388;2023-03-26T21:35:07;99595.41;;;6.47;73.95
43804;BME280;29430;52.924;-2.388;2023-03-26T21:39:59;99603.50;;;6.47;74.86
43804;BME280;29430;52.924;-2.388;2023-03-26T21:45:02;99613.66;;;6.45;74.41
43804;BME280;29430;52.924;-2.388;2023-03-26T21:49:54;99615.72;;;6.43;73.45
43804;BME280;29430;52.924;-2.388;2023-03-26T21:54:46;99617.06;;;6.32;73.07
43804;BME280;29430;52.924;-2.388;2023-03-26T22:05:03;99627.31;;;6.22;73.29
43804;BME280;29430;52.924;-2.388;2023-03-26T22:09:57;99635.78;;;6.19;73.13
43804;BME280;29430;52.924;-2.388;2023-03-26T22:14:48;99646.09;;;6.15;73.81
43804;BME280;29430;52.924;-2.388;2023-03-26T22:19:40;99660.97;;;6.11;73.17
43804;BME280;29430;52.924;-2.388;2023-03-26T22:24:32;99649.38;;;6.11;73.68
43804;BME280;29430;52.924;-2.388;2023-03-26T22:29:24;99658.25;;;6.11;72.86
43804;BME280;29430;52.924;-2.388;2023-03-26T22:34:16;99685.03;;;5.98;72.29
43804;BME280;29430;52.924;-2.388;2023-03-26T22:39:08;99697.19;;;5.94;72.55
43804;BME280;29430;52.924;-2.388;2023-03-26T22:43:59;99698.75;;;5.88;72.29
43804;BME280;29430;52.924;-2.388;2023-03-26T22:49:09;99701.38;;;5.81;73.05
43804;BME280;29430;52.924;-2.388;2023-03-26T22:54:01;99709.81;;;5.78;72.03
43804;BME280;29430;52.924;-2.388;2023-03-26T22:58:53;99707.03;;;5.71;73.08
43804;BME280;29430;52.924;-2.388;2023-03-26T23:03:44;99709.53;;;5.73;72.90
43804;BME280;29430;52.924;-2.388;2023-03-26T23:08:37;99719.66;;;5.71;72.69
43804;BME280;29430;52.924;-2.388;2023-03-26T23:13:29;99725.84;;;5.71;72.48
43804;BME280;29430;52.924;-2.388;2023-03-26T23:18:22;99732.28;;;5.70;72.54
43804;BME280;29430;52.924;-2.388;2023-03-26T23:23:14;99741.38;;;5.69;72.60
43804;BME280;29430;52.924;-2.388;2023-03-26T23:28:06;99741.91;;;5.65;72.43
43804;BME280;29430;52.924;-2.388;2023-03-26T23:32:57;99744.53;;;5.58;72.66
43804;BME280;29430;52.924;-2.388;2023-03-26T23:37:49;99760.00;;;5.56;72.66
43804;BME280;29430;52.924;-2.388;2023-03-26T23:42:41;99769.09;;;5.55;72.53
43804;BME280;29430;52.924;-2.388;2023-03-26T23:47:33;99772.16;;;5.52;72.64
43804;BME280;29430;52.924;-2.388;2023-03-26T23:52:25;99783.09;;;5.50;73.03
43804;BME280;29430;52.924;-2.388;2023-03-26T23:57:17;99793.19;;;5.48;72.77
